createdAt,value
2019-02-11T07:21:40.653Z,23.38
2019-02-11T07:24:14.446Z,21.82
2019-02-11T07:26:46.805Z,22.50
2019-02-11T07:29:34.650Z,21.17
2019-02-11T07:32:04.708Z,26.02
2019-02-11T07:34:35.596Z,23.55
2019-02-11T07:37:13.765Z,24.12
2019-02-11T07:40:11.026Z,20.43
2019-02-11T07:42:49.696Z,19.57
2019-02-11T07:45:41.833Z,22.13
2019-02-11T07:48:12.234Z,17.80
2019-02-11T07:50:45.360Z,21.80
2019-02-11T07:53:16.040Z,19.48
2019-02-11T07:55:46.446Z,18.50
2019-02-11T07:58:19.226Z,21.05
2019-02-11T08:00:51.510Z,19.87
2019-02-11T08:03:24.695Z,22.75
2019-02-11T08:05:55.023Z,15.30
2019-02-11T08:08:28.505Z,18.70
2019-02-11T08:13:51.243Z,21.75
2019-02-11T08:16:22.374Z,19.12
2019-02-11T08:18:58.755Z,22.65
2019-02-11T08:24:23.676Z,15.48
2019-02-11T08:26:54.047Z,24.25
2019-02-11T08:31:59.611Z,23.12
2019-02-11T08:34:30.068Z,21.62
2019-02-11T08:37:00.400Z,16.30
2019-02-11T08:39:31.267Z,13.10
2019-02-11T08:42:05.910Z,14.13
2019-02-11T08:44:36.233Z,15.50
2019-02-11T08:47:06.578Z,17.87
2019-02-11T08:49:40.561Z,15.60
2019-02-11T08:52:12.727Z,13.48
2019-02-11T08:54:43.244Z,14.85
2019-02-11T08:57:13.716Z,13.45
2019-02-11T08:59:45.884Z,15.35
2019-02-11T09:02:18.399Z,14.85
2019-02-11T09:04:48.845Z,15.75
2019-02-11T09:07:19.864Z,12.78
2019-02-11T09:09:50.378Z,12.75
2019-02-11T09:12:50.173Z,11.00
2019-02-11T09:15:29.780Z,17.27
2019-02-11T09:18:03.166Z,13.85
2019-02-11T09:20:53.371Z,13.85
2019-02-11T09:23:44.571Z,17.55
2019-02-11T09:26:15.862Z,25.65
2019-02-11T09:28:47.688Z,18.07
2019-02-11T09:31:17.859Z,19.42
2019-02-11T09:33:48.292Z,16.70
2019-02-11T09:36:18.895Z,14.58
2019-02-11T09:38:49.246Z,12.05
2019-02-11T09:41:30.116Z,19.92
2019-02-11T09:44:04.157Z,17.25
2019-02-11T09:46:34.759Z,24.75
2019-02-11T09:49:05.598Z,21.85
2019-02-11T09:51:42.394Z,24.07
2019-02-11T09:54:12.901Z,23.38
2019-02-11T09:56:43.550Z,15.38
2019-02-11T09:59:14.115Z,16.30
2019-02-11T10:01:49.364Z,17.35
2019-02-11T10:04:21.396Z,16.48
2019-02-11T10:06:52.353Z,17.80
2019-02-11T10:09:23.866Z,21.12
2019-02-11T10:11:56.769Z,38.35
2019-02-11T10:14:48.901Z,40.63
2019-02-11T10:26:03.757Z,28.02
2019-02-11T10:28:42.071Z,25.75
2019-02-11T10:31:12.619Z,20.62
2019-02-11T10:33:43.485Z,22.35
2019-02-11T10:36:14.762Z,21.27
2019-02-11T10:38:45.234Z,15.05
2019-02-11T10:41:15.832Z,22.98
2019-02-11T10:43:46.361Z,17.92
2019-02-11T10:46:22.669Z,18.67
2019-02-11T10:49:05.814Z,14.47
2019-02-11T10:52:14.563Z,19.73
2019-02-11T10:54:51.996Z,24.72
2019-02-11T10:57:45.622Z,20.72
2019-02-11T11:00:24.714Z,17.55
2019-02-11T11:02:59.967Z,22.17
2019-02-11T11:08:23.921Z,26.17
2019-02-11T11:11:02.493Z,28.07
2019-02-11T11:13:39.609Z,23.65
2019-02-11T11:16:11.203Z,19.67
2019-02-11T11:21:30.467Z,22.07
2019-02-11T11:24:11.467Z,13.00
2019-02-11T11:26:46.319Z,16.07
2019-02-11T11:32:39.397Z,19.10
2019-02-11T11:35:12.032Z,19.80
2019-02-11T11:37:42.462Z,18.30
2019-02-11T11:40:17.104Z,15.63
2019-02-11T11:42:47.521Z,17.65
2019-02-11T11:45:18.517Z,16.82
2019-02-11T11:50:24.018Z,10.08
2019-02-11T11:52:54.761Z,10.85
2019-02-11T11:55:29.143Z,17.80
2019-02-11T11:58:10.693Z,26.10
2019-02-11T12:01:19.839Z,20.50
2019-02-11T12:03:52.170Z,18.98
2019-02-11T12:09:13.370Z,26.82
2019-02-11T12:14:31.686Z,15.78
2019-02-11T12:17:07.209Z,19.40
2019-02-11T12:19:54.915Z,27.25
2019-02-11T12:22:24.854Z,29.30
2019-02-11T12:24:55.493Z,17.02
2019-02-11T12:27:30.093Z,22.27
2019-02-11T12:30:01.132Z,26.90
2019-02-11T12:32:35.314Z,23.35
2019-02-11T12:35:09.404Z,11.93
2019-02-11T12:37:45.729Z,17.75
2019-02-11T12:40:16.176Z,22.95
2019-02-11T12:42:53.051Z,17.55
2019-02-11T12:45:25.763Z,13.72
2019-02-11T12:47:56.492Z,12.10
2019-02-11T12:50:31.515Z,10.23
2019-02-11T12:53:01.926Z,16.17
2019-02-11T12:58:32.111Z,22.27
2019-02-11T13:04:20.111Z,17.48
2019-02-11T13:06:53.210Z,17.85
2019-02-11T13:09:26.440Z,13.20
2019-02-11T13:12:04.669Z,15.48
2019-02-11T13:17:33.803Z,16.15
2019-02-11T13:20:08.362Z,19.37
2019-02-11T13:22:39.105Z,22.48
2019-02-11T13:25:15.197Z,22.85
2019-02-11T13:27:45.685Z,68.15
2019-02-11T13:30:19.957Z,45.05
2019-02-11T13:38:47.706Z,36.38
2019-02-11T13:41:26.624Z,24.27
2019-02-11T13:43:57.203Z,18.75
2019-02-11T13:47:07.155Z,27.22
2019-02-11T13:52:52.662Z,31.97
2019-02-11T13:55:46.763Z,16.75
2019-02-11T14:01:08.579Z,31.45
2019-02-11T14:03:39.522Z,18.55
2019-02-11T14:06:12.168Z,26.07
2019-02-11T14:08:59.608Z,41.85
2019-02-11T14:11:27.173Z,22.67
2019-02-11T14:14:02.624Z,18.15
2019-02-11T14:16:29.873Z,30.48
2019-02-11T14:19:01.842Z,28.42
2019-02-11T14:21:39.546Z,24.47
2019-02-11T14:24:10.039Z,16.93
2019-02-11T14:26:45.230Z,20.77
2019-02-11T14:29:15.722Z,22.52
2019-02-11T14:31:48.703Z,25.15
2019-02-11T14:34:19.181Z,13.45
2019-02-11T14:36:51.556Z,21.45
2019-02-11T14:39:31.315Z,23.45
2019-02-11T14:41:57.089Z,16.55
2019-02-11T14:44:28.251Z,23.80
2019-02-11T14:47:01.087Z,20.15
2019-02-11T14:49:31.856Z,22.60
2019-02-11T14:52:03.812Z,29.42
2019-02-11T14:54:34.174Z,14.30
2019-02-11T15:00:03.634Z,15.43
2019-02-11T15:02:36.533Z,11.53
2019-02-11T15:05:10.750Z,19.42
2019-02-11T15:07:55.867Z,17.45
2019-02-11T15:10:26.530Z,24.95
2019-02-11T15:13:00.536Z,18.50
2019-02-11T15:15:32.922Z,18.90
2019-02-11T15:18:05.418Z,23.05
2019-02-11T15:20:36.075Z,18.52
2019-02-11T15:23:08.740Z,20.62
2019-02-11T15:25:38.949Z,21.27
2019-02-11T15:28:09.968Z,15.25
2019-02-11T15:30:40.315Z,13.28
2019-02-11T15:33:10.786Z,24.77
2019-02-11T15:35:42.172Z,14.35
2019-02-11T15:38:12.695Z,17.95
2019-02-11T15:40:43.127Z,19.10
2019-02-11T15:43:13.477Z,11.40
2019-02-11T15:45:43.848Z,11.25
2019-02-11T15:48:14.174Z,7.55
2019-02-11T15:50:44.787Z,17.25
2019-02-11T15:53:17.927Z,12.80
2019-02-11T15:55:48.382Z,12.10
2019-02-11T15:58:20.809Z,8.93
2019-02-11T16:00:51.215Z,11.15
2019-02-11T16:03:21.571Z,12.93
2019-02-11T16:05:51.887Z,20.40
2019-02-11T16:08:24.694Z,10.88
2019-02-11T16:11:01.221Z,12.47
2019-02-11T16:13:27.407Z,10.05
2019-02-11T16:15:57.864Z,11.53
2019-02-11T16:18:28.298Z,11.18
2019-02-11T16:20:58.690Z,10.95
2019-02-11T16:23:29.517Z,20.85
2019-02-11T16:25:59.878Z,13.80
2019-02-11T16:28:31.429Z,6.70
2019-02-11T16:31:02.001Z,12.20
2019-02-11T16:33:33.992Z,13.35
2019-02-11T16:36:04.351Z,17.75
2019-02-11T16:38:35.578Z,12.00
2019-02-11T16:41:05.887Z,14.13
2019-02-11T16:43:36.372Z,5.83
2019-02-11T16:46:06.638Z,10.00
2019-02-11T16:48:37.026Z,7.75
2019-02-11T16:51:07.499Z,7.08
2019-02-11T16:53:38.375Z,9.15
2019-02-11T16:56:08.672Z,11.65
2019-02-11T16:58:39.199Z,10.63
2019-02-11T17:01:09.621Z,10.18
2019-02-11T17:03:40.181Z,13.32
2019-02-11T17:06:10.506Z,8.18
2019-02-11T17:08:40.912Z,11.48
2019-02-11T17:11:11.573Z,9.63
2019-02-11T17:13:41.993Z,12.13
2019-02-11T17:16:12.420Z,11.22
2019-02-11T17:18:43.775Z,12.15
2019-02-11T17:21:14.070Z,9.88
2019-02-11T17:23:44.627Z,7.30
2019-02-11T17:26:14.996Z,9.95
2019-02-11T17:28:45.587Z,9.08
2019-02-11T17:31:17.178Z,9.43
2019-02-11T17:33:47.626Z,7.10
2019-02-11T17:36:17.997Z,9.83
2019-02-11T17:38:48.411Z,7.28
2019-02-11T17:41:21.377Z,12.58
2019-02-11T17:43:51.743Z,7.40
2019-02-11T17:46:22.042Z,6.80
2019-02-11T17:48:52.361Z,9.85
2019-02-11T17:51:22.799Z,9.43
2019-02-11T17:53:53.256Z,5.78
2019-02-11T17:56:23.723Z,4.75
2019-02-11T17:58:54.371Z,9.35
2019-02-11T18:01:24.921Z,19.98
2019-02-11T18:03:55.369Z,15.35
2019-02-11T18:06:25.696Z,11.48
2019-02-11T18:08:56.149Z,15.03
2019-02-11T18:11:32.580Z,10.45
2019-02-11T18:14:03.089Z,12.55
2019-02-11T18:16:33.551Z,11.22
2019-02-11T18:19:26.175Z,7.90
2019-02-11T18:21:53.159Z,12.47
2019-02-11T18:24:23.664Z,8.40
2019-02-11T18:29:26.647Z,6.20
2019-02-11T18:31:57.165Z,7.65
2019-02-11T18:34:27.603Z,7.72
2019-02-11T18:36:57.967Z,8.80
2019-02-11T18:39:28.385Z,5.70
2019-02-11T18:41:59.033Z,6.75
2019-02-11T18:44:29.415Z,5.47
2019-02-11T18:46:59.872Z,6.37
2019-02-11T18:49:34.619Z,6.12
2019-02-11T18:52:02.415Z,6.03
2019-02-11T18:54:32.827Z,7.58
2019-02-11T18:57:03.481Z,6.40
2019-02-11T18:59:33.945Z,5.58
2019-02-11T19:02:04.431Z,11.22
2019-02-11T19:04:34.795Z,5.58
2019-02-11T19:07:05.435Z,5.40
2019-02-11T19:09:35.835Z,6.78
2019-02-11T19:12:06.437Z,6.22
2019-02-11T19:14:36.976Z,5.60
2019-02-11T19:17:07.461Z,5.62
2019-02-11T19:19:43.045Z,5.55
2019-02-11T19:22:09.799Z,5.37
2019-02-11T19:24:40.194Z,6.45
2019-02-11T19:27:10.755Z,4.83
2019-02-11T19:29:41.379Z,7.65
2019-02-11T19:32:11.706Z,5.70
2019-02-11T19:34:41.986Z,4.97
2019-02-11T19:37:12.389Z,5.62
2019-02-11T19:39:42.699Z,4.40
2019-02-11T19:42:13.439Z,4.45
2019-02-11T19:44:43.775Z,4.75
2019-02-11T19:47:14.104Z,4.03
2019-02-11T19:49:51.732Z,6.47
2019-02-11T19:52:16.440Z,8.20
2019-02-11T19:54:46.797Z,5.33
2019-02-11T19:57:17.251Z,5.35
2019-02-11T19:59:47.772Z,5.03
2019-02-11T20:02:18.274Z,4.67
2019-02-11T20:04:48.895Z,4.97
2019-02-11T20:07:19.380Z,5.15
2019-02-11T20:09:49.770Z,4.33
2019-02-11T20:12:21.068Z,7.95
2019-02-11T20:14:51.443Z,5.40
2019-02-11T20:17:21.847Z,4.22
2019-02-11T20:19:59.902Z,7.40
2019-02-11T20:22:24.203Z,5.33
2019-02-11T20:24:54.512Z,4.95
2019-02-11T20:27:24.934Z,5.20
2019-02-11T20:29:55.389Z,3.83
2019-02-11T20:32:28.636Z,5.05
2019-02-11T20:34:59.028Z,6.30
2019-02-11T20:37:29.383Z,5.00
2019-02-11T20:40:03.545Z,5.55
2019-02-11T20:42:32.870Z,8.15
2019-02-11T20:45:03.271Z,4.00
2019-02-11T20:47:33.822Z,4.65
2019-02-11T20:50:09.315Z,4.20
2019-02-11T20:52:36.452Z,6.12
2019-02-11T20:55:07.532Z,3.05
2019-02-11T20:57:37.974Z,4.80
2019-02-11T21:00:15.186Z,3.98
2019-02-11T21:02:45.638Z,4.40
2019-02-11T21:05:15.963Z,3.92
2019-02-11T21:07:46.464Z,4.70
2019-02-11T21:10:17.192Z,4.42
2019-02-11T21:12:47.601Z,4.15
2019-02-11T21:15:17.730Z,4.50
2019-02-11T21:17:48.356Z,8.83
2019-02-11T21:20:21.824Z,4.08
2019-02-11T21:22:52.487Z,3.58
2019-02-11T21:25:23.931Z,5.72
2019-02-11T21:27:54.400Z,3.77
2019-02-11T21:30:24.791Z,3.52
2019-02-11T21:32:55.283Z,6.55
2019-02-11T21:35:26.030Z,4.35
2019-02-11T21:37:56.358Z,3.92
2019-02-11T21:40:26.771Z,4.03
2019-02-11T21:42:57.256Z,4.80
2019-02-11T21:45:27.728Z,4.45
2019-02-11T21:47:57.996Z,4.55
2019-02-11T21:50:28.398Z,3.27
2019-02-11T21:52:58.833Z,4.33
2019-02-11T21:55:29.314Z,3.52
2019-02-11T21:57:59.819Z,3.77
2019-02-11T22:00:30.361Z,5.53
2019-02-11T22:03:00.747Z,4.37
2019-02-11T22:05:31.110Z,3.92
2019-02-11T22:08:01.645Z,2.85
2019-02-11T22:10:32.002Z,3.10
2019-02-11T22:13:02.352Z,3.90
2019-02-11T22:15:33.622Z,3.17
2019-02-11T22:18:03.838Z,2.72
2019-02-11T22:20:34.939Z,2.98
2019-02-11T22:23:05.373Z,3.25
2019-02-11T22:25:35.670Z,3.05
2019-02-11T22:28:06.068Z,3.33
2019-02-11T22:30:36.629Z,2.90
2019-02-11T22:33:07.029Z,3.08
2019-02-11T22:35:37.412Z,3.17
2019-02-11T22:38:07.779Z,3.40
2019-02-11T22:40:38.311Z,4.25
2019-02-11T22:43:08.703Z,5.05
2019-02-11T22:45:38.958Z,3.98
2019-02-11T22:48:10.232Z,3.22
2019-02-11T22:50:43.175Z,2.83
2019-02-11T22:53:12.621Z,3.58
2019-02-11T22:55:42.957Z,4.40
2019-02-11T22:58:13.311Z,3.60
2019-02-11T23:00:55.701Z,3.92
2019-02-11T23:03:26.648Z,2.50
2019-02-11T23:05:57.057Z,3.42
2019-02-11T23:08:27.649Z,3.20
2019-02-11T23:10:58.044Z,4.12
2019-02-11T23:13:28.561Z,3.83
2019-02-11T23:15:59.047Z,3.10
2019-02-11T23:18:29.551Z,3.55
2019-02-11T23:20:59.904Z,3.08
2019-02-11T23:23:30.223Z,3.33
2019-02-11T23:26:00.623Z,2.95
2019-02-11T23:28:31.175Z,3.12
2019-02-11T23:31:01.685Z,2.92
2019-02-11T23:33:32.220Z,3.92
2019-02-11T23:36:02.641Z,3.33
2019-02-11T23:38:33.033Z,3.35
2019-02-11T23:41:03.415Z,3.52
2019-02-11T23:43:33.908Z,3.72
2019-02-11T23:46:04.332Z,4.35
2019-02-11T23:48:34.787Z,3.20
2019-02-11T23:51:05.247Z,2.50
2019-02-11T23:53:35.508Z,3.37
2019-02-11T23:56:05.927Z,3.77
2019-02-11T23:58:36.363Z,3.17
